sensor_id;sensor_type;location;lat;lon;timestamp;temperature;humidity
22629;DHT22;11481;53.694;9.910;2023-08-24T00:00:22;19.80;99.90
22629;DHT22;11481;53.694;9.910;2023-08-24T00:02:49;19.80;99.90
22629;DHT22;11481;53.694;9.910;2023-08-24T00:05:16;19.50;99.90
22629;DHT22;11481;53.694;9.910;2023-08-24T00:07:43;20.50;99.90
22629;DHT22;11481;53.694;9.910;2023-08-24T00:10:09;19.50;99.90
22629;DHT22;11481;53.694;9.910;2023-08-24T00:12:36;19.50;99.90
22629;DHT22;11481;53.694;9.910;2023-08-24T00:15:03;19.90;99.90
22629;DHT22;11481;53.694;9.910;2023-08-24T00:17:31;19.50;99.90
22629;DHT22;11481;53.694;9.910;2023-08-24T00:19:58;19.50;99.90
22629;DHT22;11481;53.694;9.910;2023-08-24T00:22:25;19.50;99.90
22629;DHT22;11481;53.694;9.910;2023-08-24T00:24:51;19.40;99.90
22629;DHT22;11481;53.694;9.910;2023-08-24T00:27:18;19.40;99.90
22629;DHT22;11481;53.694;9.910;2023-08-24T00:29:45;19.30;99.90
22629;DHT22;11481;53.694;9.910;2023-08-24T00:32:11;19.40;99.90
22629;DHT22;11481;53.694;9.910;2023-08-24T00:34:38;19.30;99.90
22629;DHT22;11481;53.694;9.910;2023-08-24T00:37:05;19.40;99.90
22629;DHT22;11481;53.694;9.910;2023-08-24T00:39:32;19.40;99.90
22629;DHT22;11481;53.694;9.910;2023-08-24T00:41:59;19.60;99.90
22629;DHT22;11481;53.694;9.910;2023-08-24T00:44:26;19.40;99.90
22629;DHT22;11481;53.694;9.910;2023-08-24T00:46:52;19.30;99.90
22629;DHT22;11481;53.694;9.910;2023-08-24T00:49:20;19.30;99.90
22629;DHT22;11481;53.694;9.910;2023-08-24T00:51:47;19.30;99.90
22629;DHT22;11481;53.694;9.910;2023-08-24T00:54:15;19.30;99.90
22629;DHT22;11481;53.694;9.910;2023-08-24T00:56:42;19.30;99.90
22629;DHT22;11481;53.694;9.910;2023-08-24T00:59:09;19.30;99.90
22629;DHT22;11481;53.694;9.910;2023-08-24T01:01:37;19.40;99.90
22629;DHT22;11481;53.694;9.910;2023-08-24T01:04:06;20.80;99.90
22629;DHT22;11481;53.694;9.910;2023-08-24T01:06:34;19.30;99.90
22629;DHT22;11481;53.694;9.910;2023-08-24T01:09:00;19.30;99.90
22629;DHT22;11481;53.694;9.910;2023-08-24T01:17:09;19.20;99.90
22629;DHT22;11481;53.694;9.910;2023-08-24T01:19:43;19.20;99.90
22629;DHT22;11481;53.694;9.910;2023-08-24T01:22:36;19.10;99.90
22629;DHT22;11481;53.694;9.910;2023-08-24T01:25:16;19.20;99.90
22629;DHT22;11481;53.694;9.910;2023-08-24T01:27:43;19.20;99.90
22629;DHT22;11481;53.694;9.910;2023-08-24T01:30:10;19.10;99.90
22629;DHT22;11481;53.694;9.910;2023-08-24T01:32:37;19.10;99.90
22629;DHT22;11481;53.694;9.910;2023-08-24T01:35:06;19.00;99.90
22629;DHT22;11481;53.694;9.910;2023-08-24T01:37:35;19.10;99.90
22629;DHT22;11481;53.694;9.910;2023-08-24T01:42:59;19.10;99.90
22629;DHT22;11481;53.694;9.910;2023-08-24T01:45:30;19.10;99.90
22629;DHT22;11481;53.694;9.910;2023-08-24T01:48:01;19.10;99.90
22629;DHT22;11481;53.694;9.910;2023-08-24T01:50:32;19.10;99.90
22629;DHT22;11481;53.694;9.910;2023-08-24T01:53:00;19.10;99.90
22629;DHT22;11481;53.694;9.910;2023-08-24T01:55:27;19.10;99.90
22629;DHT22;11481;53.694;9.910;2023-08-24T01:57:55;19.00;99.90
22629;DHT22;11481;53.694;9.910;2023-08-24T02:00:22;19.00;99.90
22629;DHT22;11481;53.694;9.910;2023-08-24T02:02:52;19.00;99.90
22629;DHT22;11481;53.694;9.910;2023-08-24T02:05:19;19.00;99.90
22629;DHT22;11481;53.694;9.910;2023-08-24T02:07:45;18.90;99.90
22629;DHT22;11481;53.694;9.910;2023-08-24T02:10:12;18.90;99.90
22629;DHT22;11481;53.694;9.910;2023-08-24T02:12:39;18.90;99.90
22629;DHT22;11481;53.694;9.910;2023-08-24T02:15:06;19.90;99.90
22629;DHT22;11481;53.694;9.910;2023-08-24T02:17:33;18.90;99.90
22629;DHT22;11481;53.694;9.910;2023-08-24T02:20:00;18.80;99.90
22629;DHT22;11481;53.694;9.910;2023-08-24T02:22:28;18.80;99.90
22629;DHT22;11481;53.694;9.910;2023-08-24T02:24:55;18.70;99.90
22629;DHT22;11481;53.694;9.910;2023-08-24T02:27:22;18.80;99.90
22629;DHT22;11481;53.694;9.910;2023-08-24T02:29:48;18.80;99.90
22629;DHT22;11481;53.694;9.910;2023-08-24T02:32:15;18.70;99.90
22629;DHT22;11481;53.694;9.910;2023-08-24T02:34:42;18.70;99.90
22629;DHT22;11481;53.694;9.910;2023-08-24T02:37:09;18.70;99.90
22629;DHT22;11481;53.694;9.910;2023-08-24T02:39:35;18.70;99.90
22629;DHT22;11481;53.694;9.910;2023-08-24T02:42:02;19.10;99.90
22629;DHT22;11481;53.694;9.910;2023-08-24T02:44:29;18.60;99.90
22629;DHT22;11481;53.694;9.910;2023-08-24T02:46:56;18.70;99.90
22629;DHT22;11481;53.694;9.910;2023-08-24T02:49:23;18.60;99.90
22629;DHT22;11481;53.694;9.910;2023-08-24T02:51:50;18.60;99.90
22629;DHT22;11481;53.694;9.910;2023-08-24T02:54:16;18.70;99.90
22629;DHT22;11481;53.694;9.910;2023-08-24T02:56:43;18.60;99.90
22629;DHT22;11481;53.694;9.910;2023-08-24T02:59:10;18.60;99.90
22629;DHT22;11481;53.694;9.910;2023-08-24T03:01:36;18.80;99.90
22629;DHT22;11481;53.694;9.910;2023-08-24T03:04:05;18.60;99.90
22629;DHT22;11481;53.694;9.910;2023-08-24T03:06:31;18.50;99.90
22629;DHT22;11481;53.694;9.910;2023-08-24T03:09:00;18.60;99.90
22629;DHT22;11481;53.694;9.910;2023-08-24T03:11:27;18.50;99.90
22629;DHT22;11481;53.694;9.910;2023-08-24T03:13:54;18.50;99.90
22629;DHT22;11481;53.694;9.910;2023-08-24T03:16:20;18.40;99.90
22629;DHT22;11481;53.694;9.910;2023-08-24T03:18:48;18.40;99.90
22629;DHT22;11481;53.694;9.910;2023-08-24T03:21:16;18.30;99.90
22629;DHT22;11481;53.694;9.910;2023-08-24T03:23:42;18.20;99.90
22629;DHT22;11481;53.694;9.910;2023-08-24T03:26:09;18.20;99.90
22629;DHT22;11481;53.694;9.910;2023-08-24T03:28:36;18.20;99.90
22629;DHT22;11481;53.694;9.910;2023-08-24T03:31:03;18.10;99.90
22629;DHT22;11481;53.694;9.910;2023-08-24T03:33:30;18.10;99.90
22629;DHT22;11481;53.694;9.910;2023-08-24T03:35:57;18.10;99.90
22629;DHT22;11481;53.694;9.910;2023-08-24T03:38:24;18.10;99.90
22629;DHT22;11481;53.694;9.910;2023-08-24T03:40:50;18.10;99.90
22629;DHT22;11481;53.694;9.910;2023-08-24T03:43:17;18.10;99.90
22629;DHT22;11481;53.694;9.910;2023-08-24T03:45:43;18.00;99.90
22629;DHT22;11481;53.694;9.910;2023-08-24T03:48:10;18.00;99.90
22629;DHT22;11481;53.694;9.910;2023-08-24T03:50:37;18.00;99.90
22629;DHT22;11481;53.694;9.910;2023-08-24T03:53:04;19.40;99.90
22629;DHT22;11481;53.694;9.910;2023-08-24T03:55:31;18.00;99.90
22629;DHT22;11481;53.694;9.910;2023-08-24T03:57:59;17.90;99.90
22629;DHT22;11481;53.694;9.910;2023-08-24T04:00:26;17.90;99.90
22629;DHT22;11481;53.694;9.910;2023-08-24T04:02:53;17.90;99.90
22629;DHT22;11481;53.694;9.910;2023-08-24T04:05:19;17.90;99.90
22629;DHT22;11481;53.694;9.910;2023-08-24T04:07:46;17.90;99.90
22629;DHT22;11481;53.694;9.910;2023-08-24T04:10:14;17.90;99.90
22629;DHT22;11481;53.694;9.910;2023-08-24T04:12:41;18.30;99.90
22629;DHT22;11481;53.694;9.910;2023-08-24T04:15:09;17.90;99.90
22629;DHT22;11481;53.694;9.910;2023-08-24T04:17:36;17.90;99.90
22629;DHT22;11481;53.694;9.910;2023-08-24T04:20:03;17.90;99.90
22629;DHT22;11481;53.694;9.910;2023-08-24T04:22:33;17.90;99.90
22629;DHT22;11481;53.694;9.910;2023-08-24T04:25:00;17.90;99.90
22629;DHT22;11481;53.694;9.910;2023-08-24T04:27:26;17.90;99.90
22629;DHT22;11481;53.694;9.910;2023-08-24T04:29:53;17.80;99.90
22629;DHT22;11481;53.694;9.910;2023-08-24T04:32:21;17.80;99.90
22629;DHT22;11481;53.694;9.910;2023-08-24T04:34:48;18.50;99.90
22629;DHT22;11481;53.694;9.910;2023-08-24T04:37:14;18.10;99.90
22629;DHT22;11481;53.694;9.910;2023-08-24T04:39:41;17.80;99.90
22629;DHT22;11481;53.694;9.910;2023-08-24T04:42:08;18.10;99.90
22629;DHT22;11481;53.694;9.910;2023-08-24T04:44:34;17.80;99.90
22629;DHT22;11481;53.694;9.910;2023-08-24T04:47:01;17.80;99.90
22629;DHT22;11481;53.694;9.910;2023-08-24T04:49:29;17.90;99.90
22629;DHT22;11481;53.694;9.910;2023-08-24T04:51:57;17.70;99.90
22629;DHT22;11481;53.694;9.910;2023-08-24T04:54:24;17.70;99.90
22629;DHT22;11481;53.694;9.910;2023-08-24T04:56:50;17.70;99.90
22629;DHT22;11481;53.694;9.910;2023-08-24T04:59:17;17.70;99.90
22629;DHT22;11481;53.694;9.910;2023-08-24T05:01:44;17.70;99.90
22629;DHT22;11481;53.694;9.910;2023-08-24T05:04:11;17.70;99.90
22629;DHT22;11481;53.694;9.910;2023-08-24T05:06:37;17.70;99.90
22629;DHT22;11481;53.694;9.910;2023-08-24T05:09:04;17.70;99.90
22629;DHT22;11481;53.694;9.910;2023-08-24T05:11:31;17.70;99.90
22629;DHT22;11481;53.694;9.910;2023-08-24T05:13:58;17.80;99.90
22629;DHT22;11481;53.694;9.910;2023-08-24T05:16:24;18.60;99.90
22629;DHT22;11481;53.694;9.910;2023-08-24T05:18:51;17.70;99.90
22629;DHT22;11481;53.694;9.910;2023-08-24T05:21:18;17.80;99.90
22629;DHT22;11481;53.694;9.910;2023-08-24T05:23:45;17.80;99.90
22629;DHT22;11481;53.694;9.910;2023-08-24T05:26:11;17.80;99.90
22629;DHT22;11481;53.694;9.910;2023-08-24T05:28:38;17.80;99.90
22629;DHT22;11481;53.694;9.910;2023-08-24T05:31:05;17.80;99.90
22629;DHT22;11481;53.694;9.910;2023-08-24T05:33:32;17.90;99.90
22629;DHT22;11481;53.694;9.910;2023-08-24T05:36:00;17.90;99.90
22629;DHT22;11481;53.694;9.910;2023-08-24T05:38:27;17.90;99.90
22629;DHT22;11481;53.694;9.910;2023-08-24T05:40:54;17.90;99.90
22629;DHT22;11481;53.694;9.910;2023-08-24T05:43:20;18.00;99.90
22629;DHT22;11481;53.694;9.910;2023-08-24T05:45:48;18.00;99.90
22629;DHT22;11481;53.694;9.910;2023-08-24T05:48:15;18.10;99.90
22629;DHT22;11481;53.694;9.910;2023-08-24T05:50:45;18.20;99.90
22629;DHT22;11481;53.694;9.910;2023-08-24T05:53:14;18.10;99.90
22629;DHT22;11481;53.694;9.910;2023-08-24T05:55:40;18.10;99.90
22629;DHT22;11481;53.694;9.910;2023-08-24T05:58:08;18.20;99.90
22629;DHT22;11481;53.694;9.910;2023-08-24T06:00:36;18.20;99.90
22629;DHT22;11481;53.694;9.910;2023-08-24T06:03:03;18.20;99.90
22629;DHT22;11481;53.694;9.910;2023-08-24T06:05:33;18.20;99.90
22629;DHT22;11481;53.694;9.910;2023-08-24T06:08:00;18.30;99.90
22629;DHT22;11481;53.694;9.910;2023-08-24T06:10:26;18.30;99.90
22629;DHT22;11481;53.694;9.910;2023-08-24T06:12:54;18.30;99.90
22629;DHT22;11481;53.694;9.910;2023-08-24T06:15:21;18.40;99.90
22629;DHT22;11481;53.694;9.910;2023-08-24T06:17:51;18.40;99.90
22629;DHT22;11481;53.694;9.910;2023-08-24T06:20:19;18.40;99.90
22629;DHT22;11481;53.694;9.910;2023-08-24T06:22:48;18.50;99.90
22629;DHT22;11481;53.694;9.910;2023-08-24T06:25:15;18.60;99.90
22629;DHT22;11481;53.694;9.910;2023-08-24T06:27:41;18.60;99.90
22629;DHT22;11481;53.694;9.910;2023-08-24T06:30:08;18.70;99.90
22629;DHT22;11481;53.694;9.910;2023-08-24T06:32:35;18.80;99.90
22629;DHT22;11481;53.694;9.910;2023-08-24T06:35:04;18.90;99.90
22629;DHT22;11481;53.694;9.910;2023-08-24T06:37:31;18.90;99.90
22629;DHT22;11481;53.694;9.910;2023-08-24T06:39:58;19.00;99.90
22629;DHT22;11481;53.694;9.910;2023-08-24T06:42:24;19.80;99.90
22629;DHT22;11481;53.694;9.910;2023-08-24T06:44:51;19.10;99.90
22629;DHT22;11481;53.694;9.910;2023-08-24T06:47:18;19.20;99.90
22629;DHT22;11481;53.694;9.910;2023-08-24T06:49:45;19.70;99.90
22629;DHT22;11481;53.694;9.910;2023-08-24T06:52:12;20.60;99.90
22629;DHT22;11481;53.694;9.910;2023-08-24T06:54:38;19.30;99.90
22629;DHT22;11481;53.694;9.910;2023-08-24T06:57:05;19.40;99.90
22629;DHT22;11481;53.694;9.910;2023-08-24T06:59:32;19.50;99.90
22629;DHT22;11481;53.694;9.910;2023-08-24T07:02:01;19.60;99.90
22629;DHT22;11481;53.694;9.910;2023-08-24T07:04:28;20.10;99.90
22629;DHT22;11481;53.694;9.910;2023-08-24T07:06:54;19.70;99.90
22629;DHT22;11481;53.694;9.910;2023-08-24T07:09:21;19.60;99.90
22629;DHT22;11481;53.694;9.910;2023-08-24T07:11:48;19.60;99.90
22629;DHT22;11481;53.694;9.910;2023-08-24T07:14:15;19.70;99.90
22629;DHT22;11481;53.694;9.910;2023-08-24T07:16:42;19.70;99.90
22629;DHT22;11481;53.694;9.910;2023-08-24T07:19:09;19.80;99.90
22629;DHT22;11481;53.694;9.910;2023-08-24T07:21:36;19.90;99.90
22629;DHT22;11481;53.694;9.910;2023-08-24T07:24:03;19.90;99.90
22629;DHT22;11481;53.694;9.910;2023-08-24T07:26:29;20.00;99.90
22629;DHT22;11481;53.694;9.910;2023-08-24T07:28:57;20.10;99.90
22629;DHT22;11481;53.694;9.910;2023-08-24T07:31:24;20.10;99.90
22629;DHT22;11481;53.694;9.910;2023-08-24T07:33:51;20.40;99.90
22629;DHT22;11481;53.694;9.910;2023-08-24T07:36:20;20.00;99.90
22629;DHT22;11481;53.694;9.910;2023-08-24T07:38:48;20.00;99.90
22629;DHT22;11481;53.694;9.910;2023-08-24T07:41:15;20.20;99.90
22629;DHT22;11481;53.694;9.910;2023-08-24T07:43:44;20.20;99.90
22629;DHT22;11481;53.694;9.910;2023-08-24T07:46:11;20.30;99.90
22629;DHT22;11481;53.694;9.910;2023-08-24T07:48:37;20.40;99.90
22629;DHT22;11481;53.694;9.910;2023-08-24T07:51:04;20.40;99.90
22629;DHT22;11481;53.694;9.910;2023-08-24T07:53:31;20.60;99.90
22629;DHT22;11481;53.694;9.910;2023-08-24T07:56:00;20.50;99.90
22629;DHT22;11481;53.694;9.910;2023-08-24T07:58:27;20.70;99.90
22629;DHT22;11481;53.694;9.910;2023-08-24T08:00:55;20.80;99.90
22629;DHT22;11481;53.694;9.910;2023-08-24T08:03:21;20.90;99.90
22629;DHT22;11481;53.694;9.910;2023-08-24T08:05:48;20.90;99.90
22629;DHT22;11481;53.694;9.910;2023-08-24T08:08:15;21.80;99.90
22629;DHT22;11481;53.694;9.910;2023-08-24T08:10:43;21.10;99.90
22629;DHT22;11481;53.694;9.910;2023-08-24T08:13:10;21.20;99.90
22629;DHT22;11481;53.694;9.910;2023-08-24T08:15:39;21.20;99.90
22629;DHT22;11481;53.694;9.910;2023-08-24T08:18:06;21.40;99.90
22629;DHT22;11481;53.694;9.910;2023-08-24T08:20:33;22.00;99.90
22629;DHT22;11481;53.694;9.910;2023-08-24T08:23:00;21.40;99.90
22629;DHT22;11481;53.694;9.910;2023-08-24T08:25:27;21.50;99.90
22629;DHT22;11481;53.694;9.910;2023-08-24T08:27:54;21.50;99.90
22629;DHT22;11481;53.694;9.910;2023-08-24T08:30:21;21.50;99.90
22629;DHT22;11481;53.694;9.910;2023-08-24T08:32:49;22.20;99.90
22629;DHT22;11481;53.694;9.910;2023-08-24T08:35:18;22.10;99.90
22629;DHT22;11481;53.694;9.910;2023-08-24T08:37:45;21.80;99.90
22629;DHT22;11481;53.694;9.910;2023-08-24T08:40:13;21.70;99.90
22629;DHT22;11481;53.694;9.910;2023-08-24T08:42:40;21.90;99.90
22629;DHT22;11481;53.694;9.910;2023-08-24T08:45:10;21.90;99.90
22629;DHT22;11481;53.694;9.910;2023-08-24T08:47:38;22.00;99.90
22629;DHT22;11481;53.694;9.910;2023-08-24T08:50:08;22.00;99.90
22629;DHT22;11481;53.694;9.910;2023-08-24T08:52:36;22.10;99.90
22629;DHT22;11481;53.694;9.910;2023-08-24T08:55:03;22.20;99.90
22629;DHT22;11481;53.694;9.910;2023-08-24T08:57:33;22.40;99.90
22629;DHT22;11481;53.694;9.910;2023-08-24T09:00:00;23.40;99.90
22629;DHT22;11481;53.694;9.910;2023-08-24T09:02:30;22.40;99.90
22629;DHT22;11481;53.694;9.910;2023-08-24T09:04:59;22.50;99.90
22629;DHT22;11481;53.694;9.910;2023-08-24T09:07:25;22.50;99.90
22629;DHT22;11481;53.694;9.910;2023-08-24T09:09:53;22.60;99.90
22629;DHT22;11481;53.694;9.910;2023-08-24T09:12:20;22.70;99.90
22629;DHT22;11481;53.694;9.910;2023-08-24T09:14:47;22.20;99.90
22629;DHT22;11481;53.694;9.910;2023-08-24T09:17:33;24.20;99.90
22629;DHT22;11481;53.694;9.910;2023-08-24T09:20:06;23.00;99.90
22629;DHT22;11481;53.694;9.910;2023-08-24T09:22:37;23.10;99.90
22629;DHT22;11481;53.694;9.910;2023-08-24T09:25:06;24.00;99.90
22629;DHT22;11481;53.694;9.910;2023-08-24T09:27:34;23.00;99.90
22629;DHT22;11481;53.694;9.910;2023-08-24T09:30:01;23.00;99.90
22629;DHT22;11481;53.694;9.910;2023-08-24T09:32:30;22.90;99.90
22629;DHT22;11481;53.694;9.910;2023-08-24T09:35:03;23.00;99.90
22629;DHT22;11481;53.694;9.910;2023-08-24T09:37:36;23.00;99.90
22629;DHT22;11481;53.694;9.910;2023-08-24T09:40:07;23.10;99.90
22629;DHT22;11481;53.694;9.910;2023-08-24T09:42:42;23.10;99.90
22629;DHT22;11481;53.694;9.910;2023-08-24T09:45:13;23.20;99.90
22629;DHT22;11481;53.694;9.910;2023-08-24T09:47:51;23.20;99.90
22629;DHT22;11481;53.694;9.910;2023-08-24T09:50:22;23.40;99.90
22629;DHT22;11481;53.694;9.910;2023-08-24T09:52:53;23.60;99.90
22629;DHT22;11481;53.694;9.910;2023-08-24T09:55:20;24.50;99.90
22629;DHT22;11481;53.694;9.910;2023-08-24T09:57:52;23.80;99.90
22629;DHT22;11481;53.694;9.910;2023-08-24T10:00:21;24.00;99.90
22629;DHT22;11481;53.694;9.910;2023-08-24T10:02:54;24.00;99.90
22629;DHT22;11481;53.694;9.910;2023-08-24T10:05:23;23.70;99.90
22629;DHT22;11481;53.694;9.910;2023-08-24T10:07:56;23.80;99.90
22629;DHT22;11481;53.694;9.910;2023-08-24T10:10:27;24.00;99.90
22629;DHT22;11481;53.694;9.910;2023-08-24T10:13:04;23.80;99.90
22629;DHT22;11481;53.694;9.910;2023-08-24T10:15:36;23.60;99.90
22629;DHT22;11481;53.694;9.910;2023-08-24T10:18:05;23.80;99.90
22629;DHT22;11481;53.694;9.910;2023-08-24T10:20:33;24.00;99.90
22629;DHT22;11481;53.694;9.910;2023-08-24T10:23:00;24.00;99.90
22629;DHT22;11481;53.694;9.910;2023-08-24T10:25:31;24.10;99.90
22629;DHT22;11481;53.694;9.910;2023-08-24T10:27:59;23.50;99.90
22629;DHT22;11481;53.694;9.910;2023-08-24T10:30:27;23.60;99.90
22629;DHT22;11481;53.694;9.910;2023-08-24T10:32:56;23.50;99.90
22629;DHT22;11481;53.694;9.910;2023-08-24T10:35:25;23.40;99.90
22629;DHT22;11481;53.694;9.910;2023-08-24T10:37:53;23.40;99.90
22629;DHT22;11481;53.694;9.910;2023-08-24T10:40:33;23.40;99.90
22629;DHT22;11481;53.694;9.910;2023-08-24T10:43:03;23.40;99.90
22629;DHT22;11481;53.694;9.910;2023-08-24T10:48:23;24.00;99.90
22629;DHT22;11481;53.694;9.910;2023-08-24T10:53:53;24.30;99.90
22629;DHT22;11481;53.694;9.910;2023-08-24T10:56:39;24.40;99.90
22629;DHT22;11481;53.694;9.910;2023-08-24T10:59:16;24.60;99.90
22629;DHT22;11481;53.694;9.910;2023-08-24T11:02:04;25.00;99.90
22629;DHT22;11481;53.694;9.910;2023-08-24T11:04:32;25.00;99.90
22629;DHT22;11481;53.694;9.910;2023-08-24T11:07:00;26.00;99.90
22629;DHT22;11481;53.694;9.910;2023-08-24T11:09:47;25.00;99.90
22629;DHT22;11481;53.694;9.910;2023-08-24T11:12:14;24.80;99.90
22629;DHT22;11481;53.694;9.910;2023-08-24T11:14:50;24.80;99.90
22629;DHT22;11481;53.694;9.910;2023-08-24T11:17:21;25.20;99.90
22629;DHT22;11481;53.694;9.910;2023-08-24T11:19:51;25.30;99.90
22629;DHT22;11481;53.694;9.910;2023-08-24T11:22:18;25.60;99.90
22629;DHT22;11481;53.694;9.910;2023-08-24T11:24:45;25.60;99.90
22629;DHT22;11481;53.694;9.910;2023-08-24T11:27:12;25.80;99.90
22629;DHT22;11481;53.694;9.910;2023-08-24T11:29:39;25.90;99.90
22629;DHT22;11481;53.694;9.910;2023-08-24T11:32:06;25.70;99.90
22629;DHT22;11481;53.694;9.910;2023-08-24T11:34:39;25.60;99.90
22629;DHT22;11481;53.694;9.910;2023-08-24T11:37:06;25.30;99.90
22629;DHT22;11481;53.694;9.910;2023-08-24T11:39:45;25.40;99.90
22629;DHT22;11481;53.694;9.910;2023-08-24T11:42:12;25.40;99.90
22629;DHT22;11481;53.694;9.910;2023-08-24T11:44:48;25.40;99.90
22629;DHT22;11481;53.694;9.910;2023-08-24T11:47:19;25.50;99.90
22629;DHT22;11481;53.694;9.910;2023-08-24T11:49:46;25.70;99.90
22629;DHT22;11481;53.694;9.910;2023-08-24T11:52:13;25.70;99.90
22629;DHT22;11481;53.694;9.910;2023-08-24T11:54:43;26.00;99.90
22629;DHT22;11481;53.694;9.910;2023-08-24T11:57:10;26.00;99.90
22629;DHT22;11481;53.694;9.910;2023-08-24T11:59:38;27.30;99.90
22629;DHT22;11481;53.694;9.910;2023-08-24T12:02:05;25.90;99.90
22629;DHT22;11481;53.694;9.910;2023-08-24T12:04:40;25.90;99.90
22629;DHT22;11481;53.694;9.910;2023-08-24T12:07:11;26.40;99.90
22629;DHT22;11481;53.694;9.910;2023-08-24T12:09:41;26.50;99.90
22629;DHT22;11481;53.694;9.910;2023-08-24T12:12:14;26.90;99.90
22629;DHT22;11481;53.694;9.910;2023-08-24T12:14:45;26.90;99.90
22629;DHT22;11481;53.694;9.910;2023-08-24T12:17:13;27.20;99.90
22629;DHT22;11481;53.694;9.910;2023-08-24T12:19:44;27.30;99.90
22629;DHT22;11481;53.694;9.910;2023-08-24T12:22:15;27.50;99.90
22629;DHT22;11481;53.694;9.910;2023-08-24T12:24:44;27.70;99.90
22629;DHT22;11481;53.694;9.910;2023-08-24T12:27:25;27.90;99.90
22629;DHT22;11481;53.694;9.910;2023-08-24T12:29:53;27.90;99.90
22629;DHT22;11481;53.694;9.910;2023-08-24T12:32:21;27.90;99.90
22629;DHT22;11481;53.694;9.910;2023-08-24T12:34:52;28.00;99.90
22629;DHT22;11481;53.694;9.910;2023-08-24T12:37:21;28.10;99.90
22629;DHT22;11481;53.694;9.910;2023-08-24T12:39:48;28.20;99.90
22629;DHT22;11481;53.694;9.910;2023-08-24T12:42:17;28.20;99.90
22629;DHT22;11481;53.694;9.910;2023-08-24T12:44:43;28.10;99.90
22629;DHT22;11481;53.694;9.910;2023-08-24T12:47:10;28.20;99.90
22629;DHT22;11481;53.694;9.910;2023-08-24T12:49:37;28.80;99.90
22629;DHT22;11481;53.694;9.910;2023-08-24T12:52:04;28.50;99.90
22629;DHT22;11481;53.694;9.910;2023-08-24T12:54:31;28.30;99.90
22629;DHT22;11481;53.694;9.910;2023-08-24T12:56:58;28.30;99.90
22629;DHT22;11481;53.694;9.910;2023-08-24T12:59:25;28.30;99.90
22629;DHT22;11481;53.694;9.910;2023-08-24T13:01:54;28.40;99.90
22629;DHT22;11481;53.694;9.910;2023-08-24T13:04:21;28.40;99.90
22629;DHT22;11481;53.694;9.910;2023-08-24T13:06:47;28.80;99.90
22629;DHT22;11481;53.694;9.910;2023-08-24T13:09:14;28.70;99.90
22629;DHT22;11481;53.694;9.910;2023-08-24T13:11:41;28.90;99.90
22629;DHT22;11481;53.694;9.910;2023-08-24T13:14:08;29.20;99.90
22629;DHT22;11481;53.694;9.910;2023-08-24T13:16:37;29.30;99.90
22629;DHT22;11481;53.694;9.910;2023-08-24T13:19:05;29.40;99.90
22629;DHT22;11481;53.694;9.910;2023-08-24T13:21:34;29.50;99.90
22629;DHT22;11481;53.694;9.910;2023-08-24T13:24:06;29.70;99.90
22629;DHT22;11481;53.694;9.910;2023-08-24T13:26:34;29.70;99.90
22629;DHT22;11481;53.694;9.910;2023-08-24T13:29:00;29.80;99.90
22629;DHT22;11481;53.694;9.910;2023-08-24T13:31:28;30.00;99.90
22629;DHT22;11481;53.694;9.910;2023-08-24T13:33:57;30.00;99.90
22629;DHT22;11481;53.694;9.910;2023-08-24T13:36:26;30.10;99.90
22629;DHT22;11481;53.694;9.910;2023-08-24T13:38:56;31.50;99.90
22629;DHT22;11481;53.694;9.910;2023-08-24T13:41:24;30.20;99.90
22629;DHT22;11481;53.694;9.910;2023-08-24T13:43:51;30.20;99.90
22629;DHT22;11481;53.694;9.910;2023-08-24T13:46:20;30.30;99.90
22629;DHT22;11481;53.694;9.910;2023-08-24T13:48:47;30.40;99.90
22629;DHT22;11481;53.694;9.910;2023-08-24T13:51:15;30.40;99.90
22629;DHT22;11481;53.694;9.910;2023-08-24T13:53:44;30.40;99.90
22629;DHT22;11481;53.694;9.910;2023-08-24T13:56:11;30.60;99.90
22629;DHT22;11481;53.694;9.910;2023-08-24T13:58:38;30.80;99.90
22629;DHT22;11481;53.694;9.910;2023-08-24T14:01:05;31.20;99.90
22629;DHT22;11481;53.694;9.910;2023-08-24T14:03:31;31.00;99.90
22629;DHT22;11481;53.694;9.910;2023-08-24T14:06:00;31.00;99.90
22629;DHT22;11481;53.694;9.910;2023-08-24T14:08:27;31.00;99.90
22629;DHT22;11481;53.694;9.910;2023-08-24T14:10:54;31.20;99.90
22629;DHT22;11481;53.694;9.910;2023-08-24T14:13:21;31.30;99.90
22629;DHT22;11481;53.694;9.910;2023-08-24T14:15:48;31.30;99.90
22629;DHT22;11481;53.694;9.910;2023-08-24T14:18:17;31.30;99.90
22629;DHT22;11481;53.694;9.910;2023-08-24T14:20:44;31.30;99.90
22629;DHT22;11481;53.694;9.910;2023-08-24T14:23:10;31.20;99.90
22629;DHT22;11481;53.694;9.910;2023-08-24T14:25:37;31.20;99.90
22629;DHT22;11481;53.694;9.910;2023-08-24T14:28:05;31.00;99.90
22629;DHT22;11481;53.694;9.910;2023-08-24T14:30:36;31.10;99.90
22629;DHT22;11481;53.694;9.910;2023-08-24T14:33:03;31.00;99.90
22629;DHT22;11481;53.694;9.910;2023-08-24T14:35:30;30.80;99.90
22629;DHT22;11481;53.694;9.910;2023-08-24T14:37:59;30.70;99.90
22629;DHT22;11481;53.694;9.910;2023-08-24T14:40:26;30.60;99.90
22629;DHT22;11481;53.694;9.910;2023-08-24T14:42:53;30.70;99.90
22629;DHT22;11481;53.694;9.910;2023-08-24T14:45:21;30.70;99.90
22629;DHT22;11481;53.694;9.910;2023-08-24T14:47:48;30.80;99.90
22629;DHT22;11481;53.694;9.910;2023-08-24T14:50:15;31.00;99.90
22629;DHT22;11481;53.694;9.910;2023-08-24T14:52:42;31.00;99.90
22629;DHT22;11481;53.694;9.910;2023-08-24T14:55:09;31.00;99.90
22629;DHT22;11481;53.694;9.910;2023-08-24T14:57:36;31.00;99.90
22629;DHT22;11481;53.694;9.910;2023-08-24T15:00:03;31.00;99.90
22629;DHT22;11481;53.694;9.910;2023-08-24T15:02:31;30.80;99.90
22629;DHT22;11481;53.694;9.910;2023-08-24T15:04:59;30.90;99.90
22629;DHT22;11481;53.694;9.910;2023-08-24T15:07:26;30.90;99.90
22629;DHT22;11481;53.694;9.910;2023-08-24T15:09:53;30.70;99.90
22629;DHT22;11481;53.694;9.910;2023-08-24T15:12:21;30.70;99.90
22629;DHT22;11481;53.694;9.910;2023-08-24T15:15:01;30.60;99.90
22629;DHT22;11481;53.694;9.910;2023-08-24T15:17:31;30.60;99.90
22629;DHT22;11481;53.694;9.910;2023-08-24T15:19:58;30.60;99.90
22629;DHT22;11481;53.694;9.910;2023-08-24T15:22:25;30.70;99.90
22629;DHT22;11481;53.694;9.910;2023-08-24T15:24:56;30.70;99.90
22629;DHT22;11481;53.694;9.910;2023-08-24T15:27:24;30.60;99.90
22629;DHT22;11481;53.694;9.910;2023-08-24T15:29:51;30.40;99.90
22629;DHT22;11481;53.694;9.910;2023-08-24T15:32:18;30.20;99.90
22629;DHT22;11481;53.694;9.910;2023-08-24T15:34:46;30.10;99.90
22629;DHT22;11481;53.694;9.910;2023-08-24T15:37:13;30.20;99.90
22629;DHT22;11481;53.694;9.910;2023-08-24T15:39:40;30.10;99.90
22629;DHT22;11481;53.694;9.910;2023-08-24T15:42:07;30.10;99.90
22629;DHT22;11481;53.694;9.910;2023-08-24T15:44:34;30.10;99.90
22629;DHT22;11481;53.694;9.910;2023-08-24T15:47:02;30.10;99.90
22629;DHT22;11481;53.694;9.910;2023-08-24T15:49:29;29.90;99.90